createdAt,value
2023-09-08T00:00:43.573Z,1006.06
2023-09-08T00:01:43.690Z,1006.05
2023-09-08T00:02:43.575Z,1006.06
2023-09-08T00:03:43.623Z,1006.11
2023-09-08T00:04:43.548Z,1006.06
2023-09-08T00:05:43.516Z,1006.06
2023-09-08T00:06:43.531Z,1006.03
2023-09-08T00:07:43.494Z,1006.05
2023-09-08T00:08:43.479Z,1006.03
2023-09-08T00:09:43.486Z,1006.01
2023-09-08T00:10:43.458Z,1006.02
2023-09-08T00:11:43.465Z,1006.08
2023-09-08T00:12:43.430Z,1006.06
2023-09-08T00:13:43.465Z,1006.06
2023-09-08T00:14:43.377Z,1006.03
2023-09-08T00:15:43.421Z,1006.05
2023-09-08T00:16:43.438Z,1006.03
2023-09-08T00:17:43.396Z,1006.04
2023-09-08T00:18:43.348Z,1006.04
2023-09-08T00:19:43.389Z,1006.01
2023-09-08T00:20:43.393Z,1006.00
2023-09-08T00:21:43.301Z,1005.98
2023-09-08T00:22:43.360Z,1005.97
2023-09-08T00:23:43.312Z,1005.96
2023-09-08T00:24:43.296Z,1005.98
2023-09-08T00:25:43.279Z,1005.96
2023-09-08T00:26:43.219Z,1006.01
2023-09-08T00:27:43.282Z,1005.99
2023-09-08T00:28:43.207Z,1005.99
2023-09-08T00:29:43.223Z,1005.91
2023-09-08T00:30:43.181Z,1005.94
2023-09-08T00:31:43.178Z,1005.99
2023-09-08T00:32:43.279Z,1005.94
2023-09-08T00:33:43.222Z,1005.98
2023-09-08T00:34:43.128Z,1006.01
2023-09-08T00:35:43.109Z,1005.98
2023-09-08T00:36:43.119Z,1005.96
2023-09-08T00:37:43.110Z,1006.02
2023-09-08T00:38:43.095Z,1005.93
2023-09-08T00:39:43.063Z,1005.92
2023-09-08T00:40:43.057Z,1005.96
2023-09-08T00:41:43.061Z,1005.98
2023-09-08T00:42:43.031Z,1005.95
2023-09-08T00:43:43.026Z,1005.99
2023-09-08T00:44:42.997Z,1006.06
2023-09-08T00:45:43.062Z,1005.96
2023-09-08T00:46:43.016Z,1006.04
2023-09-08T00:47:43.073Z,1005.97
2023-09-08T00:48:42.960Z,1006.01
2023-09-08T00:49:42.936Z,1006.02
2023-09-08T00:50:42.981Z,1006.00
2023-09-08T00:51:42.928Z,1005.96
2023-09-08T00:52:42.889Z,1006.01
2023-09-08T00:53:42.956Z,1006.01
2023-09-08T00:54:42.907Z,1005.98
2023-09-08T00:55:42.866Z,1005.99
2023-09-08T00:56:42.867Z,1006.06
2023-09-08T00:57:42.835Z,1006.00
2023-09-08T00:58:42.814Z,1006.01
2023-09-08T00:59:42.806Z,1006.06
2023-09-08T01:00:42.812Z,1006.02
2023-09-08T01:01:42.776Z,1006.04
2023-09-08T01:02:42.875Z,1006.04
2023-09-08T01:03:42.787Z,1006.08
2023-09-08T01:04:42.960Z,1006.03
2023-09-08T01:05:42.761Z,1006.00
2023-09-08T01:06:42.717Z,1006.07
2023-09-08T01:07:42.714Z,1006.05
2023-09-08T01:08:42.916Z,1006.03
2023-09-08T01:09:42.807Z,1005.99
2023-09-08T01:10:42.662Z,1005.99
2023-09-08T01:11:42.704Z,1005.99
2023-09-08T01:12:42.638Z,1006.04
2023-09-08T01:13:42.649Z,1006.04
2023-09-08T01:14:42.653Z,1006.05
2023-09-08T01:15:42.698Z,1006.03
2023-09-08T01:16:42.646Z,1006.06
2023-09-08T01:17:42.725Z,1006.07
2023-09-08T01:18:42.674Z,1006.05
2023-09-08T01:19:42.559Z,1006.06
2023-09-08T01:20:42.515Z,1006.08
2023-09-08T01:21:42.546Z,1006.06
2023-09-08T01:22:42.507Z,1006.07
2023-09-08T01:23:42.496Z,1006.01
2023-09-08T01:24:42.889Z,1006.04
2023-09-08T01:25:42.463Z,1005.99
2023-09-08T01:26:42.458Z,1006.00
2023-09-08T01:27:42.433Z,1005.97
2023-09-08T01:28:42.482Z,1005.99
2023-09-08T01:29:42.408Z,1005.99
2023-09-08T01:30:42.395Z,1005.96
2023-09-08T01:31:42.481Z,1005.95
2023-09-08T01:32:42.398Z,1006.02
2023-09-08T01:33:42.366Z,1006.01
2023-09-08T01:34:42.328Z,1006.06
2023-09-08T01:35:42.333Z,1006.04
2023-09-08T01:36:42.313Z,1006.03
2023-09-08T01:37:42.323Z,1006.03
2023-09-08T01:38:42.348Z,1006.03
2023-09-08T01:39:42.280Z,1006.00
2023-09-08T01:40:42.270Z,1006.02
2023-09-08T01:41:42.247Z,1006.02
2023-09-08T01:42:42.277Z,1005.99
2023-09-08T01:43:42.233Z,1006.01
2023-09-08T01:44:42.215Z,1006.01
2023-09-08T01:45:42.239Z,1005.95
2023-09-08T01:46:42.386Z,1005.96
2023-09-08T01:47:42.216Z,1005.97
2023-09-08T01:48:42.184Z,1005.96
2023-09-08T01:49:42.148Z,1005.95
2023-09-08T01:50:42.121Z,1005.90
2023-09-08T01:51:42.169Z,1005.94
2023-09-08T01:52:42.102Z,1005.93
2023-09-08T01:53:42.101Z,1005.93
2023-09-08T01:54:42.155Z,1005.94
2023-09-08T01:55:42.084Z,1005.90
2023-09-08T01:56:42.069Z,1005.93
2023-09-08T01:57:42.037Z,1005.91
2023-09-08T01:58:42.047Z,1005.96
2023-09-08T01:59:41.998Z,1005.94
2023-09-08T02:00:42.034Z,1005.91
2023-09-08T02:01:42.014Z,1005.97
2023-09-08T02:02:42.010Z,1005.95
2023-09-08T02:03:41.956Z,1005.93
2023-09-08T02:04:42.114Z,1005.99
2023-09-08T02:05:41.988Z,1005.91
2023-09-08T02:06:41.922Z,1005.96
2023-09-08T02:07:41.902Z,1005.97
2023-09-08T02:08:41.884Z,1005.96
2023-09-08T02:09:41.879Z,1005.96
2023-09-08T02:10:41.886Z,1005.97
2023-09-08T02:11:41.853Z,1006.01
2023-09-08T02:12:41.836Z,1005.97
2023-09-08T02:13:41.834Z,1005.94
2023-09-08T02:14:41.884Z,1005.96
2023-09-08T02:15:41.910Z,1005.95
2023-09-08T02:16:41.797Z,1005.98
2023-09-08T02:17:41.788Z,1005.92
2023-09-08T02:18:41.769Z,1005.94
2023-09-08T02:19:41.819Z,1005.96
2023-09-08T02:20:41.726Z,1005.96
2023-09-08T02:21:41.728Z,1005.92
2023-09-08T02:22:41.708Z,1005.92
2023-09-08T02:23:41.969Z,1005.93
2023-09-08T02:24:41.684Z,1005.93
2023-09-08T02:25:41.686Z,1005.99
2023-09-08T02:26:41.649Z,1005.94
2023-09-08T02:27:41.650Z,1005.97
2023-09-08T02:28:41.660Z,1005.95
2023-09-08T02:29:41.629Z,1005.96
2023-09-08T02:30:41.615Z,1005.99
2023-09-08T02:31:41.601Z,1006.00
2023-09-08T02:32:41.596Z,1006.02
2023-09-08T02:33:41.684Z,1005.97
2023-09-08T02:34:41.560Z,1006.01
2023-09-08T02:35:41.547Z,1006.02
2023-09-08T02:36:41.538Z,1005.96
2023-09-08T02:37:41.494Z,1005.97
2023-09-08T02:38:41.513Z,1006.01
2023-09-08T02:39:41.476Z,1006.00
2023-09-08T02:40:41.459Z,1006.04
2023-09-08T02:41:41.455Z,1006.06
2023-09-08T02:42:41.512Z,1006.04
2023-09-08T02:43:41.436Z,1006.04
2023-09-08T02:44:41.418Z,1006.02
2023-09-08T02:45:41.464Z,1006.03
2023-09-08T02:46:41.396Z,1006.05
2023-09-08T02:47:41.444Z,1006.02
2023-09-08T02:48:41.367Z,1006.00
2023-09-08T02:49:41.401Z,1006.01
2023-09-08T02:50:41.324Z,1005.99
2023-09-08T02:51:41.387Z,1006.00
2023-09-08T02:52:41.329Z,1006.05
2023-09-08T02:53:41.288Z,1006.02
2023-09-08T02:54:41.317Z,1005.99
2023-09-08T02:55:41.316Z,1006.02
2023-09-08T02:56:41.258Z,1006.00
2023-09-08T02:57:41.233Z,1005.99
2023-09-08T02:58:41.221Z,1005.97
2023-09-08T02:59:41.219Z,1005.97
2023-09-08T03:00:41.188Z,1005.96
2023-09-08T03:01:41.291Z,1005.97
2023-09-08T03:02:41.289Z,1005.99
2023-09-08T03:03:41.195Z,1005.99
2023-09-08T03:04:41.155Z,1005.99
2023-09-08T03:05:41.130Z,1006.03
2023-09-08T03:06:41.140Z,1005.99
2023-09-08T03:07:41.177Z,1006.00
2023-09-08T03:08:41.096Z,1005.95
2023-09-08T03:09:41.094Z,1005.98
2023-09-08T03:10:41.243Z,1006.00
2023-09-08T03:11:41.073Z,1005.99
2023-09-08T03:12:41.054Z,1005.96
2023-09-08T03:13:41.040Z,1005.97
2023-09-08T03:14:41.012Z,1006.01
2023-09-08T03:15:41.037Z,1005.95
2023-09-08T03:16:41.150Z,1005.99
2023-09-08T03:17:41.003Z,1005.96
2023-09-08T03:18:40.962Z,1005.99
2023-09-08T03:19:41.023Z,1005.94
2023-09-08T03:20:40.970Z,1006.01
2023-09-08T03:21:40.914Z,1005.96
2023-09-08T03:22:40.905Z,1005.98
2023-09-08T03:23:40.993Z,1005.95
2023-09-08T03:24:40.911Z,1005.96
2023-09-08T03:25:40.868Z,1005.93
2023-09-08T03:26:40.890Z,1005.92
2023-09-08T03:27:40.855Z,1005.94
2023-09-08T03:28:40.836Z,1005.92
2023-09-08T03:29:40.827Z,1005.89
2023-09-08T03:30:40.803Z,1005.90
2023-09-08T03:31:40.983Z,1005.90
2023-09-08T03:32:40.861Z,1005.88
2023-09-08T03:33:40.896Z,1005.98
2023-09-08T03:34:40.929Z,1005.87
2023-09-08T03:35:40.756Z,1005.87
2023-09-08T03:36:40.813Z,1005.89
2023-09-08T03:37:40.723Z,1005.92
2023-09-08T03:38:40.709Z,1005.94
2023-09-08T03:39:40.670Z,1005.92
2023-09-08T03:40:40.676Z,1005.90
2023-09-08T03:41:40.649Z,1005.90
2023-09-08T03:42:40.687Z,1005.89
2023-09-08T03:43:40.643Z,1005.96
2023-09-08T03:44:40.614Z,1005.94
2023-09-08T03:45:40.655Z,1005.95
2023-09-08T03:46:40.728Z,1005.92
2023-09-08T03:47:40.647Z,1005.95
2023-09-08T03:48:40.587Z,1005.95
2023-09-08T03:49:40.635Z,1005.91
2023-09-08T03:50:40.536Z,1005.92
2023-09-08T03:51:40.524Z,1005.87
2023-09-08T03:52:40.526Z,1005.92
2023-09-08T03:53:40.601Z,1005.92
2023-09-08T03:54:40.526Z,1005.91
2023-09-08T03:55:40.484Z,1005.93
2023-09-08T03:56:40.464Z,1005.87
2023-09-08T03:57:40.462Z,1005.88
2023-09-08T03:58:40.435Z,1005.86
2023-09-08T03:59:40.452Z,1005.91
2023-09-08T04:00:40.417Z,1005.91
2023-09-08T04:01:40.440Z,1005.89
2023-09-08T04:02:40.426Z,1005.86
2023-09-08T04:03:40.385Z,1005.85
2023-09-08T04:04:40.357Z,1005.86
2023-09-08T04:05:40.347Z,1005.83
2023-09-08T04:06:40.335Z,1005.85
2023-09-08T04:07:40.333Z,1005.86
2023-09-08T04:08:40.304Z,1005.88
2023-09-08T04:09:40.287Z,1005.86
2023-09-08T04:10:40.295Z,1005.85
2023-09-08T04:11:40.316Z,1005.84
2023-09-08T04:12:40.255Z,1005.79
2023-09-08T04:13:40.231Z,1005.77
2023-09-08T04:14:40.244Z,1005.82
2023-09-08T04:15:40.276Z,1005.83
2023-09-08T04:16:40.225Z,1005.78
2023-09-08T04:17:40.258Z,1005.79
2023-09-08T04:18:40.199Z,1005.82
2023-09-08T04:19:40.177Z,1005.80
2023-09-08T04:20:40.167Z,1005.80
2023-09-08T04:21:40.139Z,1005.81
2023-09-08T04:22:40.111Z,1005.82
2023-09-08T04:23:40.108Z,1005.80
2023-09-08T04:24:40.119Z,1005.81
2023-09-08T04:25:40.097Z,1005.85
2023-09-08T04:26:40.063Z,1005.81
2023-09-08T04:27:40.053Z,1005.82
2023-09-08T04:28:40.036Z,1005.79
2023-09-08T04:29:40.096Z,1005.81
2023-09-08T04:30:40.105Z,1005.80
2023-09-08T04:31:40.018Z,1005.80
2023-09-08T04:32:40.033Z,1005.81
2023-09-08T04:33:40.302Z,1005.80
2023-09-08T04:34:39.971Z,1005.80
2023-09-08T04:35:39.952Z,1005.72
2023-09-08T04:36:39.952Z,1005.80
2023-09-08T04:37:39.935Z,1005.74
2023-09-08T04:38:39.917Z,1005.75
2023-09-08T04:39:39.945Z,1005.75
2023-09-08T04:40:39.894Z,1005.73
2023-09-08T04:41:39.873Z,1005.78
2023-09-08T04:42:39.929Z,1005.74
2023-09-08T04:43:39.852Z,1005.77
2023-09-08T04:44:39.894Z,1005.76
2023-09-08T04:45:39.841Z,1005.76
2023-09-08T04:46:39.887Z,1005.78
2023-09-08T04:47:39.823Z,1005.79
2023-09-08T04:48:40.930Z,1005.82
2023-09-08T04:49:39.808Z,1005.81
2023-09-08T04:50:39.751Z,1005.85
2023-09-08T04:51:39.761Z,1005.78
2023-09-08T04:52:39.748Z,1005.75
2023-09-08T04:53:39.739Z,1005.77
2023-09-08T04:54:39.757Z,1005.77
2023-09-08T04:55:39.686Z,1005.79
2023-09-08T04:56:39.722Z,1005.75
2023-09-08T04:57:39.751Z,1005.77
2023-09-08T04:58:39.687Z,1005.76
2023-09-08T04:59:39.664Z,1005.77
2023-09-08T05:00:39.706Z,1005.80
2023-09-08T05:01:39.599Z,1005.77
2023-09-08T05:02:39.710Z,1005.79
2023-09-08T05:03:39.793Z,1005.80
2023-09-08T05:04:39.568Z,1005.78
2023-09-08T05:05:39.599Z,1005.77
2023-09-08T05:06:39.554Z,1005.79
2023-09-08T05:07:39.562Z,1005.81
2023-09-08T05:08:39.696Z,1005.82
2023-09-08T05:09:39.514Z,1005.85
2023-09-08T05:10:39.501Z,1005.81
2023-09-08T05:11:39.519Z,1005.86
2023-09-08T05:12:39.475Z,1005.90
2023-09-08T05:13:39.456Z,1005.87
2023-09-08T05:14:39.476Z,1005.88
2023-09-08T05:15:39.478Z,1005.85
2023-09-08T05:16:39.489Z,1005.79
2023-09-08T05:17:39.466Z,1005.87
2023-09-08T05:18:39.421Z,1005.83
2023-09-08T05:19:39.385Z,1005.87
2023-09-08T05:20:39.368Z,1005.80
2023-09-08T05:21:39.391Z,1005.87
2023-09-08T05:22:39.354Z,1005.83
2023-09-08T05:23:39.327Z,1005.78
2023-09-08T05:24:39.310Z,1005.84
2023-09-08T05:25:39.396Z,1005.82
2023-09-08T05:26:39.335Z,1005.85
2023-09-08T05:27:39.262Z,1005.83
2023-09-08T05:28:40.113Z,1005.80
2023-09-08T05:29:39.242Z,1005.78
2023-09-08T05:30:39.266Z,1005.85
2023-09-08T05:31:39.207Z,1005.77
2023-09-08T05:32:39.286Z,1005.76
2023-09-08T05:33:39.206Z,1005.76
2023-09-08T05:34:39.200Z,1005.75
2023-09-08T05:35:39.188Z,1005.77
2023-09-08T05:36:39.224Z,1005.77
2023-09-08T05:37:39.133Z,1005.74
2023-09-08T05:38:39.119Z,1005.76
2023-09-08T05:39:39.133Z,1005.74
2023-09-08T05:40:39.119Z,1005.77
2023-09-08T05:41:39.085Z,1005.74
2023-09-08T05:42:39.085Z,1005.74
2023-09-08T05:43:39.118Z,1005.73
2023-09-08T05:44:39.117Z,1005.73
2023-09-08T05:45:39.035Z,1005.73
2023-09-08T05:46:39.100Z,1005.73
2023-09-08T05:47:39.048Z,1005.74
2023-09-08T05:48:39.027Z,1005.70
2023-09-08T05:49:39.074Z,1005.76
2023-09-08T05:50:38.979Z,1005.74
2023-09-08T05:51:38.966Z,1005.78
2023-09-08T05:52:38.964Z,1005.76
2023-09-08T05:53:38.948Z,1005.73
2023-09-08T05:54:38.931Z,1005.73
2023-09-08T05:55:38.887Z,1005.74
2023-09-08T05:56:38.891Z,1005.73
2023-09-08T05:57:38.880Z,1005.74
2023-09-08T05:58:38.884Z,1005.74
2023-09-08T05:59:38.881Z,1005.74
2023-09-08T06:00:38.824Z,1005.70
2023-09-08T06:01:38.848Z,1005.72
2023-09-08T06:02:38.886Z,1005.72
2023-09-08T06:03:39.011Z,1005.77
2023-09-08T06:04:38.822Z,1005.79
2023-09-08T06:05:38.775Z,1005.76
2023-09-08T06:06:38.752Z,1005.77
2023-09-08T06:07:39.045Z,1005.78
2023-09-08T06:08:38.725Z,1005.75
2023-09-08T06:09:38.773Z,1005.77
2023-09-08T06:10:38.713Z,1005.79
2023-09-08T06:11:38.710Z,1005.79
2023-09-08T06:12:38.757Z,1005.81
2023-09-08T06:13:38.652Z,1005.79
2023-09-08T06:14:38.791Z,1005.76
2023-09-08T06:15:38.661Z,1005.75
2023-09-08T06:16:38.803Z,1005.76
2023-09-08T06:17:38.617Z,1005.78
2023-09-08T06:18:38.588Z,1005.76
2023-09-08T06:19:38.575Z,1005.73
2023-09-08T06:20:38.617Z,1005.77
2023-09-08T06:21:38.555Z,1005.80
2023-09-08T06:22:38.553Z,1005.78
2023-09-08T06:23:38.543Z,1005.81
2023-09-08T06:24:38.522Z,1005.76
2023-09-08T06:25:38.526Z,1005.75
2023-09-08T06:26:38.534Z,1005.70
2023-09-08T06:27:38.473Z,1005.68
2023-09-08T06:28:38.693Z,1005.70
2023-09-08T06:29:38.439Z,1005.70
2023-09-08T06:30:38.447Z,1005.70
2023-09-08T06:31:38.459Z,1005.69
2023-09-08T06:32:38.469Z,1005.65
2023-09-08T06:33:38.544Z,1005.68
2023-09-08T06:34:38.626Z,1005.64
2023-09-08T06:35:38.388Z,1005.62
2023-09-08T06:36:38.399Z,1005.63
2023-09-08T06:37:38.354Z,1005.69
2023-09-08T06:38:38.595Z,1005.59
2023-09-08T06:39:38.382Z,1005.65
2023-09-08T06:40:38.334Z,1005.64
2023-09-08T06:41:38.293Z,1005.62
2023-09-08T06:42:38.318Z,1005.64
2023-09-08T06:43:38.275Z,1005.65
2023-09-08T06:44:38.263Z,1005.66
2023-09-08T06:45:38.242Z,1005.61
2023-09-08T06:46:38.326Z,1005.60
2023-09-08T06:47:38.337Z,1005.61
2023-09-08T06:48:38.600Z,1005.58
2023-09-08T06:49:38.247Z,1005.54
2023-09-08T06:50:38.235Z,1005.52
2023-09-08T06:51:38.168Z,1005.60
2023-09-08T06:52:38.168Z,1005.54
2023-09-08T06:53:38.183Z,1005.58
2023-09-08T06:54:38.141Z,1005.55
2023-09-08T06:55:38.133Z,1005.48
2023-09-08T06:56:38.088Z,1005.49
2023-09-08T06:57:38.156Z,1005.52
2023-09-08T06:58:38.185Z,1005.50
2023-09-08T06:59:38.065Z,1005.46
2023-09-08T07:00:38.112Z,1005.51
2023-09-08T07:01:38.249Z,1005.47
2023-09-08T07:02:38.150Z,1005.49
2023-09-08T07:03:38.856Z,1005.53
2023-09-08T07:04:38.104Z,1005.52
2023-09-08T07:05:37.987Z,1005.55
2023-09-08T07:06:37.965Z,1005.59
2023-09-08T07:07:37.985Z,1005.54
2023-09-08T07:08:38.039Z,1005.48
2023-09-08T07:09:37.951Z,1005.53
2023-09-08T07:10:37.927Z,1005.49
2023-09-08T07:11:37.917Z,1005.50
2023-09-08T07:12:37.908Z,1005.53
2023-09-08T07:13:37.918Z,1005.51
2023-09-08T07:14:37.873Z,1005.53
2023-09-08T07:15:37.859Z,1005.48
2023-09-08T07:16:38.031Z,1005.59
2023-09-08T07:17:37.877Z,1005.55
2023-09-08T07:18:37.953Z,1005.53
2023-09-08T07:19:37.828Z,1005.54
2023-09-08T07:20:37.789Z,1005.54
2023-09-08T07:21:37.864Z,1005.55
2023-09-08T07:22:37.825Z,1005.56
2023-09-08T07:23:37.764Z,1005.53
2023-09-08T07:24:37.755Z,1005.47
2023-09-08T07:25:37.757Z,1005.49
2023-09-08T07:26:37.724Z,1005.50
2023-09-08T07:27:37.714Z,1005.52
2023-09-08T07:28:37.982Z,1005.49
2023-09-08T07:29:37.685Z,1005.48
2023-09-08T07:30:37.734Z,1005.49
2023-09-08T07:31:37.728Z,1005.48
2023-09-08T07:32:37.712Z,1005.48
2023-09-08T07:33:37.670Z,1005.53
2023-09-08T07:34:37.635Z,1005.54
2023-09-08T07:35:37.637Z,1005.50
2023-09-08T07:36:37.618Z,1005.50
2023-09-08T07:37:37.592Z,1005.54
2023-09-08T07:38:37.883Z,1005.52
2023-09-08T07:39:37.571Z,1005.44
2023-09-08T07:40:37.566Z,1005.50
2023-09-08T07:41:37.561Z,1005.43
2023-09-08T07:42:37.531Z,1005.41
2023-09-08T07:43:37.605Z,1005.48
2023-09-08T07:44:37.570Z,1005.46
2023-09-08T07:45:37.524Z,1005.47
2023-09-08T07:46:37.475Z,1005.39
2023-09-08T07:47:37.483Z,1005.37
2023-09-08T07:48:37.818Z,1005.35
2023-09-08T07:49:37.508Z,1005.34
2023-09-08T07:50:37.434Z,1005.33
2023-09-08T07:51:37.408Z,1005.33
2023-09-08T07:52:37.412Z,1005.31
2023-09-08T07:53:37.455Z,1005.34
2023-09-08T07:54:37.403Z,1005.35
2023-09-08T07:55:37.379Z,1005.31
2023-09-08T07:56:37.401Z,1005.36
2023-09-08T07:57:37.365Z,1005.37
2023-09-08T07:58:37.548Z,1005.36
2023-09-08T07:59:38.135Z,1005.30
2023-09-08T08:00:37.308Z,1005.29
2023-09-08T08:01:37.349Z,1005.33
2023-09-08T08:02:37.331Z,1005.32
2023-09-08T08:03:37.471Z,1005.31
2023-09-08T08:04:37.337Z,1005.29
2023-09-08T08:05:37.318Z,1005.35
2023-09-08T08:06:37.256Z,1005.31
2023-09-08T08:07:37.232Z,1005.33
2023-09-08T08:08:37.520Z,1005.31
2023-09-08T08:09:37.217Z,1005.31
2023-09-08T08:10:37.195Z,1005.31
2023-09-08T08:11:37.249Z,1005.28
2023-09-08T08:12:37.171Z,1005.27
2023-09-08T08:13:37.168Z,1005.25
2023-09-08T08:14:37.171Z,1005.25
2023-09-08T08:15:37.131Z,1005.23
2023-09-08T08:16:37.155Z,1005.22
2023-09-08T08:17:37.208Z,1005.25
2023-09-08T08:18:37.390Z,1005.22
2023-09-08T08:19:37.084Z,1005.21
2023-09-08T08:20:37.152Z,1005.25
2023-09-08T08:21:37.070Z,1005.20
2023-09-08T08:22:37.071Z,1005.19
2023-09-08T08:23:37.051Z,1005.17
2023-09-08T08:24:37.028Z,1005.14
2023-09-08T08:25:37.016Z,1005.15
2023-09-08T08:26:37.010Z,1005.12
2023-09-08T08:27:37.019Z,1005.14
2023-09-08T08:28:37.391Z,1005.15
2023-09-08T08:29:36.954Z,1005.15
2023-09-08T08:30:37.018Z,1005.08
2023-09-08T08:31:37.015Z,1005.14
2023-09-08T08:32:36.980Z,1005.10
2023-09-08T08:33:36.970Z,1005.10
2023-09-08T08:34:36.896Z,1005.13
2023-09-08T08:35:36.898Z,1005.12
2023-09-08T08:36:36.972Z,1005.14
2023-09-08T08:37:36.865Z,1005.15
2023-09-08T08:38:37.098Z,1005.11
2023-09-08T08:39:36.859Z,1005.14
2023-09-08T08:40:36.850Z,1005.14
2023-09-08T08:41:36.829Z,1005.11
2023-09-08T08:42:36.840Z,1005.08
2023-09-08T08:43:36.836Z,1005.07
2023-09-08T08:44:36.790Z,1005.09
2023-09-08T08:45:36.817Z,1005.07
2023-09-08T08:46:36.752Z,1005.07
2023-09-08T08:47:36.864Z,1005.04
2023-09-08T08:48:37.034Z,1005.03
2023-09-08T08:49:36.740Z,1005.02
2023-09-08T08:50:36.732Z,1004.98
2023-09-08T08:51:36.785Z,1005.04
2023-09-08T08:52:36.685Z,1005.04
2023-09-08T08:53:36.692Z,1005.01
2023-09-08T08:54:36.726Z,1005.01
2023-09-08T08:55:36.652Z,1004.98
2023-09-08T08:56:36.656Z,1004.98
2023-09-08T08:57:36.633Z,1004.99
2023-09-08T08:58:36.887Z,1005.00
2023-09-08T08:59:36.615Z,1005.00
2023-09-08T09:00:36.605Z,1005.02
2023-09-08T09:01:36.583Z,1004.98
2023-09-08T09:02:36.602Z,1005.01
2023-09-08T09:03:36.578Z,1004.98
2023-09-08T09:04:36.558Z,1005.05
2023-09-08T09:05:36.590Z,1005.01
2023-09-08T09:06:36.511Z,1005.00
2023-09-08T09:07:36.532Z,1005.02
2023-09-08T09:08:36.631Z,1005.00
2023-09-08T09:09:36.580Z,1005.04
2023-09-08T09:10:36.468Z,1005.05
2023-09-08T09:11:36.541Z,1005.01
2023-09-08T09:12:36.508Z,1005.03
2023-09-08T09:13:36.582Z,1004.99
2023-09-08T09:14:36.533Z,1005.00
2023-09-08T09:15:36.452Z,1005.00
2023-09-08T09:16:36.542Z,1004.98
2023-09-08T09:17:36.489Z,1005.00
2023-09-08T09:18:36.801Z,1005.00
2023-09-08T09:19:36.402Z,1004.97
2023-09-08T09:20:36.410Z,1004.94
2023-09-08T09:21:36.337Z,1004.97
2023-09-08T09:22:36.344Z,1004.97
2023-09-08T09:23:36.324Z,1004.98
2023-09-08T09:24:36.326Z,1004.94
2023-09-08T09:25:36.423Z,1004.98
2023-09-08T09:26:36.284Z,1004.92
2023-09-08T09:27:36.350Z,1004.91
2023-09-08T09:28:36.526Z,1004.93
2023-09-08T09:29:36.253Z,1004.87
2023-09-08T09:30:36.257Z,1004.89
2023-09-08T09:31:36.232Z,1004.89
2023-09-08T09:32:36.275Z,1004.92
2023-09-08T09:33:36.292Z,1004.93
2023-09-08T09:34:36.178Z,1004.88
2023-09-08T09:35:37.652Z,1004.90
2023-09-08T09:36:36.161Z,1004.87
2023-09-08T09:37:36.184Z,1004.87
2023-09-08T09:38:36.341Z,1004.85
2023-09-08T09:39:36.113Z,1004.84
2023-09-08T09:40:36.154Z,1004.86
2023-09-08T09:41:36.112Z,1004.85
2023-09-08T09:42:36.096Z,1004.85
2023-09-08T09:43:36.090Z,1004.84
2023-09-08T09:44:36.073Z,1004.80
2023-09-08T09:45:36.100Z,1004.86
2023-09-08T09:46:36.023Z,1004.85
2023-09-08T09:47:36.100Z,1004.85
2023-09-08T09:48:36.273Z,1004.84
2023-09-08T09:49:36.025Z,1004.78
2023-09-08T09:50:36.028Z,1004.81
2023-09-08T09:51:35.975Z,1004.78
2023-09-08T09:52:35.988Z,1004.81
2023-09-08T09:53:35.972Z,1004.81
2023-09-08T09:54:35.948Z,1004.83
2023-09-08T09:55:35.938Z,1004.76
2023-09-08T09:56:35.933Z,1004.77
2023-09-08T09:57:35.908Z,1004.78
2023-09-08T09:58:36.099Z,1004.75
2023-09-08T09:59:35.887Z,1004.75
2023-09-08T10:00:35.935Z,1004.78
2023-09-08T10:01:35.897Z,1004.76
2023-09-08T10:02:35.902Z,1004.77
2023-09-08T10:03:35.898Z,1004.74
2023-09-08T10:04:35.829Z,1004.76
2023-09-08T10:05:35.801Z,1004.76
2023-09-08T10:06:35.823Z,1004.72
2023-09-08T10:07:35.779Z,1004.77
2023-09-08T10:08:35.872Z,1004.75
2023-09-08T10:09:35.777Z,1004.75
2023-09-08T10:10:35.824Z,1004.78
2023-09-08T10:11:35.739Z,1004.74
2023-09-08T10:12:35.748Z,1004.76
2023-09-08T10:13:35.729Z,1004.78
2023-09-08T10:14:35.696Z,1004.73
2023-09-08T10:15:35.812Z,1004.71
2023-09-08T10:16:35.679Z,1004.68
2023-09-08T10:17:35.719Z,1004.67
2023-09-08T10:18:35.754Z,1004.67
2023-09-08T10:19:35.632Z,1004.63
2023-09-08T10:20:35.697Z,1004.63
2023-09-08T10:21:35.603Z,1004.68
2023-09-08T10:22:35.609Z,1004.62
2023-09-08T10:23:35.599Z,1004.63
2023-09-08T10:24:35.626Z,1004.59
2023-09-08T10:25:35.578Z,1004.54
2023-09-08T10:26:35.550Z,1004.59
2023-09-08T10:27:35.590Z,1004.60
2023-09-08T10:28:35.802Z,1004.62
2023-09-08T10:29:35.548Z,1004.67
2023-09-08T10:30:35.519Z,1004.61
2023-09-08T10:31:35.536Z,1004.61
2023-09-08T10:32:35.544Z,1004.58
2023-09-08T10:33:35.509Z,1004.56
2023-09-08T10:34:35.460Z,1004.53
2023-09-08T10:35:35.465Z,1004.54
2023-09-08T10:36:36.697Z,1004.59
2023-09-08T10:37:35.449Z,1004.54
2023-09-08T10:38:35.901Z,1004.56
2023-09-08T10:39:35.460Z,1004.55
2023-09-08T10:40:35.405Z,1004.52
2023-09-08T10:41:35.394Z,1004.47
2023-09-08T10:42:35.339Z,1004.49
2023-09-08T10:43:35.385Z,1004.53
2023-09-08T10:44:35.366Z,1004.50
2023-09-08T10:45:35.373Z,1004.49
2023-09-08T10:46:35.345Z,1004.46
2023-09-08T10:47:35.490Z,1004.45
2023-09-08T10:48:35.589Z,1004.44
2023-09-08T10:49:35.268Z,1004.45
2023-09-08T10:50:35.272Z,1004.49
2023-09-08T10:51:35.258Z,1004.52
2023-09-08T10:52:35.249Z,1004.48
2023-09-08T10:53:35.224Z,1004.46
2023-09-08T10:54:35.205Z,1004.44
2023-09-08T10:55:35.223Z,1004.45
2023-09-08T10:56:35.228Z,1004.41
2023-09-08T10:57:35.192Z,1004.46
2023-09-08T10:58:35.445Z,1004.42
2023-09-08T10:59:35.180Z,1004.40
2023-09-08T11:00:35.147Z,1004.40
2023-09-08T11:01:35.174Z,1004.40
2023-09-08T11:02:35.184Z,1004.37
2023-09-08T11:03:35.235Z,1004.43
2023-09-08T11:04:35.216Z,1004.45
2023-09-08T11:05:35.070Z,1004.40
2023-09-08T11:06:35.051Z,1004.39
2023-09-08T11:07:35.048Z,1004.38
2023-09-08T11:08:35.391Z,1004.34
2023-09-08T11:09:35.049Z,1004.37
2023-09-08T11:10:35.000Z,1004.31
2023-09-08T11:11:35.087Z,1004.30
2023-09-08T11:12:34.990Z,1004.32
2023-09-08T11:13:35.008Z,1004.35
2023-09-08T11:14:35.028Z,1004.29
2023-09-08T11:15:34.955Z,1004.24
2023-09-08T11:16:35.025Z,1004.33
2023-09-08T11:17:34.963Z,1004.29
2023-09-08T11:18:35.238Z,1004.32
2023-09-08T11:19:34.908Z,1004.32
2023-09-08T11:20:34.930Z,1004.31
2023-09-08T11:21:34.861Z,1004.30
2023-09-08T11:22:34.884Z,1004.33
2023-09-08T11:23:34.853Z,1004.30
2023-09-08T11:24:34.884Z,1004.35
2023-09-08T11:25:34.853Z,1004.34
2023-09-08T11:26:34.816Z,1004.33
2023-09-08T11:27:34.825Z,1004.32
2023-09-08T11:28:35.203Z,1004.32
2023-09-08T11:29:34.774Z,1004.30
2023-09-08T11:30:34.815Z,1004.28
2023-09-08T11:31:34.803Z,1004.27
2023-09-08T11:32:34.786Z,1004.27
2023-09-08T11:33:34.755Z,1004.29
2023-09-08T11:34:34.713Z,1004.26
2023-09-08T11:35:34.704Z,1004.28
2023-09-08T11:36:34.729Z,1004.28
2023-09-08T11:37:34.685Z,1004.29
2023-09-08T11:38:34.895Z,1004.28
2023-09-08T11:39:34.672Z,1004.32
2023-09-08T11:40:34.659Z,1004.29
2023-09-08T11:41:34.643Z,1004.25
2023-09-08T11:42:34.637Z,1004.26
2023-09-08T11:43:34.614Z,1004.23
2023-09-08T11:44:34.620Z,1004.26
2023-09-08T11:45:34.592Z,1004.23
2023-09-08T11:46:34.693Z,1004.23
2023-09-08T11:47:34.593Z,1004.23
2023-09-08T11:48:34.867Z,1004.28
2023-09-08T11:49:34.567Z,1004.23
2023-09-08T11:50:34.521Z,1004.25
2023-09-08T11:51:34.523Z,1004.22
2023-09-08T11:52:34.503Z,1004.20
2023-09-08T11:53:34.499Z,1004.20
2023-09-08T11:54:34.568Z,1004.24
2023-09-08T11:55:34.512Z,1004.19
2023-09-08T11:56:34.893Z,1004.18
2023-09-08T11:57:34.441Z,1004.20
2023-09-08T11:58:34.764Z,1004.20
2023-09-08T11:59:34.432Z,1004.19
2023-09-08T12:00:34.422Z,1004.20
2023-09-08T12:01:34.615Z,1004.14
2023-09-08T12:02:34.460Z,1004.13
2023-09-08T12:03:34.470Z,1004.18
2023-09-08T12:04:34.410Z,1004.13
2023-09-08T12:05:34.330Z,1004.13